createdAt,value
2022-10-09T00:02:53.302Z,10.46
2022-10-09T00:05:55.868Z,10.49
2022-10-09T00:09:02.066Z,10.52
2022-10-09T00:12:05.164Z,10.41
2022-10-09T00:15:11.129Z,10.26
2022-10-09T00:18:16.281Z,10.22
2022-10-09T00:21:21.462Z,10.20
2022-10-09T00:24:25.332Z,10.10
2022-10-09T00:27:28.066Z,9.98
2022-10-09T00:30:31.044Z,10.08
2022-10-09T00:33:34.588Z,10.00
2022-10-09T00:36:37.184Z,9.92
2022-10-09T00:39:41.081Z,10.13
2022-10-09T00:42:45.739Z,10.05
2022-10-09T00:45:51.532Z,9.98
2022-10-09T00:49:04.637Z,10.05
2022-10-09T00:52:08.789Z,10.12
2022-10-09T00:55:15.353Z,10.15
2022-10-09T00:58:18.107Z,10.06
2022-10-09T01:01:20.904Z,10.04
2022-10-09T01:04:23.825Z,9.96
2022-10-09T01:07:37.074Z,9.93
2022-10-09T01:10:49.051Z,9.92
2022-10-09T01:13:58.861Z,9.90
2022-10-09T01:17:08.860Z,9.94
2022-10-09T01:20:36.295Z,9.79
2022-10-09T01:23:49.288Z,9.88
2022-10-09T01:27:00.086Z,9.83
2022-10-09T01:30:06.686Z,9.72
2022-10-09T01:33:10.986Z,9.73
2022-10-09T01:36:15.722Z,9.68
2022-10-09T01:39:22.323Z,9.69
2022-10-09T01:42:29.982Z,9.78
2022-10-09T01:45:39.170Z,9.83
2022-10-09T01:48:42.294Z,9.94
2022-10-09T01:51:52.558Z,9.94
2022-10-09T01:55:15.067Z,9.93
2022-10-09T01:58:25.643Z,9.94
2022-10-09T02:01:32.236Z,9.81
2022-10-09T02:04:37.163Z,9.76
2022-10-09T02:07:39.950Z,9.82
2022-10-09T02:10:44.609Z,9.87
2022-10-09T02:13:52.887Z,9.96
2022-10-09T02:17:02.026Z,9.82
2022-10-09T02:20:10.123Z,9.77
2022-10-09T02:23:14.613Z,9.75
2022-10-09T02:26:17.608Z,9.83
2022-10-09T02:29:22.056Z,9.86
2022-10-09T02:32:24.760Z,9.74
2022-10-09T02:35:27.733Z,9.75
2022-10-09T02:38:30.639Z,9.79
2022-10-09T02:41:33.893Z,9.79
2022-10-09T02:44:37.908Z,9.77
2022-10-09T02:47:40.503Z,9.85
2022-10-09T02:50:43.075Z,9.81
2022-10-09T02:53:45.798Z,9.65
2022-10-09T02:56:48.500Z,9.61
2022-10-09T02:59:52.559Z,9.67
2022-10-09T03:02:55.325Z,9.73
2022-10-09T03:06:02.592Z,9.73
2022-10-09T03:09:05.423Z,9.70
2022-10-09T03:12:08.072Z,9.72
2022-10-09T03:15:12.805Z,9.75
2022-10-09T03:18:15.578Z,9.71
2022-10-09T03:21:20.269Z,9.62
2022-10-09T03:24:22.827Z,9.70
2022-10-09T03:27:25.516Z,9.55
2022-10-09T03:30:29.507Z,9.51
2022-10-09T03:33:32.191Z,9.49
2022-10-09T03:36:34.844Z,9.49
2022-10-09T03:39:37.398Z,9.50
2022-10-09T03:42:39.971Z,9.44
2022-10-09T03:45:44.346Z,9.45
2022-10-09T03:48:47.620Z,9.48
2022-10-09T03:51:50.222Z,9.43
2022-10-09T03:54:52.954Z,9.52
2022-10-09T03:57:55.622Z,9.60
2022-10-09T04:00:59.798Z,9.56
2022-10-09T04:04:02.407Z,9.61
2022-10-09T04:07:05.067Z,9.67
2022-10-09T04:10:08.330Z,9.64
2022-10-09T04:13:11.326Z,9.62
2022-10-09T04:16:15.382Z,9.63
2022-10-09T04:19:17.978Z,9.52
2022-10-09T04:22:21.085Z,9.53
2022-10-09T04:25:23.698Z,9.52
2022-10-09T04:28:26.347Z,9.39
2022-10-09T04:31:30.334Z,9.33
2022-10-09T04:34:33.103Z,9.34
2022-10-09T04:37:36.709Z,9.21
2022-10-09T04:40:39.375Z,9.37
2022-10-09T04:43:42.136Z,9.32
2022-10-09T04:46:46.081Z,9.40
2022-10-09T04:49:48.961Z,9.51
2022-10-09T04:52:51.714Z,9.49
2022-10-09T04:55:54.461Z,9.53
2022-10-09T04:58:57.070Z,9.56
2022-10-09T05:02:01.368Z,9.50
2022-10-09T05:05:04.199Z,9.42
2022-10-09T05:08:06.964Z,9.30
2022-10-09T05:11:11.702Z,8.89
2022-10-09T05:14:14.306Z,8.55
2022-10-09T05:17:22.776Z,8.29
2022-10-09T05:20:25.913Z,8.09
2022-10-09T05:23:28.645Z,7.91
2022-10-09T05:26:31.233Z,7.80
2022-10-09T05:29:34.182Z,7.74
2022-10-09T05:32:38.213Z,7.64
2022-10-09T05:35:40.763Z,7.57
2022-10-09T05:38:43.459Z,7.53
2022-10-09T05:41:46.119Z,7.53
2022-10-09T05:44:48.796Z,7.50
2022-10-09T05:47:52.722Z,7.48
2022-10-09T05:50:55.288Z,7.43
2022-10-09T05:53:58.427Z,7.43
2022-10-09T05:57:00.975Z,7.44
2022-10-09T06:00:03.634Z,7.45
2022-10-09T06:03:07.543Z,7.44
2022-10-09T06:06:10.502Z,7.45
2022-10-09T06:09:13.092Z,7.46
2022-10-09T06:12:15.669Z,7.51
2022-10-09T06:15:18.651Z,7.58
2022-10-09T06:18:22.726Z,7.65
2022-10-09T06:21:26.562Z,7.75
2022-10-09T06:24:29.682Z,7.72
2022-10-09T06:27:32.347Z,7.98
2022-10-09T06:30:38.584Z,8.05
2022-10-09T06:33:45.049Z,8.24
2022-10-09T06:36:47.766Z,8.48
2022-10-09T06:39:50.440Z,9.04
2022-10-09T06:42:53.143Z,9.74
2022-10-09T06:45:55.774Z,10.17
2022-10-09T06:49:01.817Z,10.41
2022-10-09T06:52:04.448Z,10.70
2022-10-09T06:55:07.670Z,10.74
2022-10-09T06:58:10.262Z,11.00
2022-10-09T07:01:14.319Z,11.63
2022-10-09T07:04:18.758Z,12.09
2022-10-09T07:07:21.407Z,12.56
2022-10-09T07:10:25.315Z,12.82
2022-10-09T07:13:30.805Z,13.07
2022-10-09T07:16:35.820Z,13.13
2022-10-09T07:19:40.061Z,13.35
2022-10-09T07:22:42.645Z,13.63
2022-10-09T07:25:45.410Z,13.70
2022-10-09T07:28:49.119Z,13.88
2022-10-09T07:31:51.733Z,13.44
2022-10-09T07:34:55.821Z,13.31
2022-10-09T07:37:58.353Z,13.00
2022-10-09T07:41:01.915Z,12.98
2022-10-09T07:44:04.593Z,12.80
2022-10-09T07:47:07.277Z,13.13
2022-10-09T07:50:11.347Z,13.37
2022-10-09T07:53:13.884Z,13.34
2022-10-09T07:56:17.781Z,13.12
2022-10-09T07:59:20.427Z,13.09
2022-10-09T08:02:23.027Z,13.05
2022-10-09T08:05:26.997Z,12.95
2022-10-09T08:08:29.795Z,13.19
2022-10-09T08:11:33.019Z,13.33
2022-10-09T08:14:35.929Z,13.21
2022-10-09T08:17:38.538Z,13.18
2022-10-09T08:20:42.595Z,13.17
2022-10-09T08:23:46.002Z,13.11
2022-10-09T08:26:48.686Z,12.97
2022-10-09T08:29:51.314Z,13.00
2022-10-09T08:32:54.061Z,13.00
2022-10-09T08:36:10.576Z,13.10
2022-10-09T08:39:13.248Z,13.01
2022-10-09T08:42:28.363Z,13.09
2022-10-09T08:45:33.220Z,13.08
2022-10-09T08:48:42.360Z,13.24
2022-10-09T08:51:46.430Z,13.30
2022-10-09T08:54:50.169Z,13.50
2022-10-09T08:57:55.354Z,13.39
2022-10-09T09:01:03.822Z,13.53
2022-10-09T09:04:29.814Z,13.42
2022-10-09T09:07:42.466Z,13.60
2022-10-09T09:10:55.515Z,13.66
2022-10-09T09:14:12.576Z,13.69
2022-10-09T09:17:24.456Z,13.77
2022-10-09T09:20:30.706Z,14.03
2022-10-09T09:23:39.943Z,14.24
2022-10-09T09:26:46.300Z,14.74
2022-10-09T09:29:54.698Z,15.11
2022-10-09T09:33:05.653Z,15.41
2022-10-09T09:36:11.855Z,15.89
2022-10-09T09:42:41.830Z,16.69
2022-10-09T09:45:45.586Z,17.18
2022-10-09T09:48:49.396Z,17.17
2022-10-09T09:51:52.388Z,17.69
2022-10-09T09:54:58.121Z,18.16
2022-10-09T09:58:03.798Z,18.62
2022-10-09T10:01:08.024Z,18.72
2022-10-09T10:04:21.655Z,19.08
2022-10-09T10:07:32.205Z,18.73
2022-10-09T10:10:36.168Z,19.09
2022-10-09T10:13:46.609Z,19.49
2022-10-09T10:16:50.878Z,19.59
2022-10-09T10:19:53.557Z,19.88
2022-10-09T10:22:58.833Z,19.69
2022-10-09T10:26:10.038Z,19.80
2022-10-09T10:29:16.652Z,20.05
2022-10-09T10:32:27.412Z,20.41
2022-10-09T10:35:33.254Z,20.69
2022-10-09T10:38:41.559Z,20.90
2022-10-09T10:41:52.434Z,21.11
2022-10-09T10:45:01.624Z,20.96
2022-10-09T10:48:06.146Z,20.64
2022-10-09T10:51:24.722Z,20.50
2022-10-09T10:54:37.319Z,20.62
2022-10-09T10:57:51.402Z,20.11
2022-10-09T11:01:12.037Z,19.66
2022-10-09T11:04:30.939Z,19.57
2022-10-09T11:07:41.147Z,19.49
2022-10-09T11:10:56.650Z,19.76
2022-10-09T11:14:09.566Z,19.03
2022-10-09T11:17:22.960Z,18.53
2022-10-09T11:20:50.233Z,19.45
2022-10-09T11:24:13.153Z,19.71
2022-10-09T11:27:23.843Z,20.17
2022-10-09T11:30:31.550Z,19.99
2022-10-09T11:33:37.551Z,20.07
2022-10-09T11:36:43.074Z,19.60
2022-10-09T11:39:46.838Z,19.38
2022-10-09T11:42:57.390Z,18.89
2022-10-09T11:46:05.667Z,18.69
2022-10-09T11:49:18.347Z,18.59
2022-10-09T11:52:28.937Z,19.34
2022-10-09T11:55:33.274Z,19.85
2022-10-09T11:58:36.552Z,20.16
2022-10-09T12:01:42.943Z,19.82
2022-10-09T12:04:54.787Z,19.53
2022-10-09T12:08:09.139Z,19.82
2022-10-09T12:11:18.008Z,19.71
2022-10-09T12:14:26.631Z,19.65
2022-10-09T12:17:36.045Z,19.76
2022-10-09T12:20:40.401Z,19.34
2022-10-09T12:23:43.390Z,19.59
2022-10-09T12:26:47.144Z,19.88
2022-10-09T12:29:55.558Z,19.86
2022-10-09T12:33:05.368Z,19.50
2022-10-09T12:36:13.646Z,19.70
2022-10-09T12:39:20.508Z,19.66
2022-10-09T12:42:25.413Z,19.65
2022-10-09T12:45:30.974Z,19.53
2022-10-09T12:48:40.320Z,19.63
2022-10-09T12:51:42.912Z,19.68
2022-10-09T12:54:46.247Z,19.57
2022-10-09T12:57:48.915Z,19.60
2022-10-09T13:00:54.338Z,19.61
2022-10-09T13:04:00.377Z,19.29
2022-10-09T13:07:17.216Z,19.48
2022-10-09T13:10:24.082Z,19.11
2022-10-09T13:13:28.342Z,18.93
2022-10-09T13:16:43.699Z,19.06
2022-10-09T13:19:53.882Z,18.90
2022-10-09T13:22:58.347Z,18.88
2022-10-09T13:26:03.710Z,18.66
2022-10-09T13:29:08.362Z,18.49
2022-10-09T13:32:13.450Z,18.10
2022-10-09T13:35:17.574Z,18.19
2022-10-09T13:38:20.915Z,18.15
2022-10-09T13:41:25.868Z,18.05
2022-10-09T13:44:28.445Z,18.12
2022-10-09T13:47:31.393Z,17.98
2022-10-09T13:50:35.352Z,18.14
2022-10-09T13:53:37.945Z,17.81
2022-10-09T13:56:40.614Z,17.78
2022-10-09T13:59:43.248Z,17.74
2022-10-09T14:02:45.980Z,17.70
2022-10-09T14:05:50.163Z,17.65
2022-10-09T14:08:53.887Z,17.71
2022-10-09T14:11:56.462Z,17.78
2022-10-09T14:14:59.051Z,17.54
2022-10-09T14:18:01.742Z,17.55
2022-10-09T14:21:14.782Z,17.62
2022-10-09T14:24:19.391Z,17.40
2022-10-09T14:27:22.143Z,17.27
2022-10-09T14:30:24.828Z,17.30
2022-10-09T14:33:27.538Z,17.21
2022-10-09T14:36:31.807Z,17.22
2022-10-09T14:39:34.393Z,17.10
2022-10-09T14:42:38.036Z,17.03
2022-10-09T14:45:40.647Z,16.98
2022-10-09T14:48:44.660Z,16.86
2022-10-09T14:51:49.020Z,16.87
2022-10-09T14:54:51.659Z,16.90
2022-10-09T14:57:54.408Z,16.71
2022-10-09T15:00:57.126Z,16.74
2022-10-09T15:04:00.833Z,16.67
2022-10-09T15:07:04.829Z,16.65
2022-10-09T15:10:08.031Z,16.53
2022-10-09T15:13:10.767Z,16.50
2022-10-09T15:16:16.083Z,16.58
2022-10-09T15:19:18.665Z,16.44
2022-10-09T15:22:22.712Z,16.35
2022-10-09T15:25:25.558Z,16.29
2022-10-09T15:28:28.883Z,16.21
2022-10-09T15:31:32.948Z,16.26
2022-10-09T15:34:40.098Z,16.07
2022-10-09T15:37:45.599Z,16.06
2022-10-09T15:40:50.813Z,16.09
2022-10-09T15:43:56.304Z,15.92
2022-10-09T15:46:58.840Z,15.87
2022-10-09T15:50:01.606Z,15.75
2022-10-09T15:53:10.614Z,15.69
2022-10-09T15:56:14.926Z,15.68
2022-10-09T15:59:17.774Z,15.57
2022-10-09T16:02:20.548Z,15.45
2022-10-09T16:05:23.110Z,15.30
2022-10-09T16:08:29.597Z,15.22
2022-10-09T16:11:32.753Z,15.17
2022-10-09T16:14:35.323Z,15.02
2022-10-09T16:17:38.031Z,14.87
2022-10-09T16:20:41.357Z,14.76
2022-10-09T16:23:46.009Z,14.63
2022-10-09T16:26:50.998Z,14.50
2022-10-09T16:29:53.654Z,14.30
2022-10-09T16:32:56.333Z,14.22
2022-10-09T16:36:09.799Z,14.12
2022-10-09T16:39:13.903Z,14.04
2022-10-09T16:42:17.551Z,13.95
2022-10-09T16:45:20.114Z,13.88
2022-10-09T16:48:22.873Z,13.78
2022-10-09T16:51:27.744Z,13.61
2022-10-09T16:54:31.762Z,13.46
2022-10-09T16:57:34.472Z,13.43
2022-10-09T17:00:37.102Z,13.35
2022-10-09T17:03:41.434Z,13.25
2022-10-09T17:06:45.627Z,13.18
2022-10-09T17:09:49.802Z,13.10
2022-10-09T17:12:52.413Z,13.01
2022-10-09T17:15:55.118Z,12.90
2022-10-09T17:18:58.438Z,12.81
2022-10-09T17:22:01.491Z,12.74
2022-10-09T17:25:06.403Z,12.69
2022-10-09T17:28:09.153Z,12.58
2022-10-09T17:31:14.451Z,12.48
2022-10-09T17:34:17.519Z,12.44
2022-10-09T17:37:20.259Z,12.32
2022-10-09T17:40:24.205Z,12.14
2022-10-09T17:43:26.865Z,12.12
2022-10-09T17:46:30.589Z,12.10
2022-10-09T17:49:33.509Z,12.07
2022-10-09T17:52:36.210Z,12.03
2022-10-09T17:55:40.129Z,11.97
2022-10-09T17:59:01.489Z,11.87
2022-10-09T18:02:04.582Z,11.82
2022-10-09T18:05:08.933Z,11.75
2022-10-09T18:08:11.960Z,11.69
2022-10-09T18:11:17.412Z,11.64
2022-10-09T18:14:19.987Z,11.60
2022-10-09T18:17:22.922Z,11.49
2022-10-09T18:20:25.582Z,11.47
2022-10-09T18:23:28.267Z,11.43
2022-10-09T18:26:32.552Z,11.34
2022-10-09T18:29:35.141Z,11.28
2022-10-09T18:32:37.876Z,11.22
2022-10-09T18:35:41.130Z,11.15
2022-10-09T18:38:43.933Z,11.11
2022-10-09T18:41:48.539Z,11.09
2022-10-09T18:44:51.122Z,11.10
2022-10-09T18:47:53.890Z,11.04
2022-10-09T18:50:57.238Z,10.97
2022-10-09T18:54:04.078Z,10.92
2022-10-09T18:57:08.107Z,10.85
2022-10-09T19:00:12.112Z,10.79
2022-10-09T19:03:14.748Z,10.78
2022-10-09T19:06:17.722Z,10.76
2022-10-09T19:09:23.002Z,10.73
2022-10-09T19:12:27.887Z,10.65
2022-10-09T19:15:30.608Z,10.61
2022-10-09T19:18:34.572Z,10.57
2022-10-09T19:21:39.483Z,10.46
2022-10-09T19:24:42.303Z,10.48
2022-10-09T19:27:46.364Z,10.42
2022-10-09T19:30:49.531Z,10.34
2022-10-09T19:33:52.356Z,10.34
2022-10-09T19:36:55.071Z,10.32
2022-10-09T19:39:58.057Z,10.29
2022-10-09T19:43:02.248Z,10.25
2022-10-09T19:46:10.782Z,10.23
2022-10-09T19:49:13.692Z,10.19
2022-10-09T19:52:16.388Z,10.16
2022-10-09T19:55:19.298Z,10.14
2022-10-09T19:58:23.319Z,10.05
2022-10-09T20:01:29.868Z,10.05
2022-10-09T20:04:32.568Z,10.09
2022-10-09T20:07:35.192Z,10.05
2022-10-09T20:10:38.946Z,10.01
2022-10-09T20:13:44.027Z,9.95
2022-10-09T20:16:46.722Z,9.90
2022-10-09T20:19:49.550Z,9.89
2022-10-09T20:22:52.699Z,9.86
2022-10-09T20:26:00.586Z,9.84
2022-10-09T20:29:06.826Z,9.79
2022-10-09T20:32:12.198Z,9.75
2022-10-09T20:35:14.767Z,9.72
2022-10-09T20:38:20.881Z,9.67
2022-10-09T20:41:28.759Z,9.64
2022-10-09T20:44:32.856Z,9.63
2022-10-09T20:47:35.858Z,9.59
2022-10-09T20:50:38.640Z,9.57
2022-10-09T20:53:41.409Z,9.55
2022-10-09T20:56:44.436Z,9.53
2022-10-09T20:59:48.772Z,9.49
2022-10-09T21:02:51.597Z,9.50
2022-10-09T21:05:54.856Z,9.45
2022-10-09T21:08:59.468Z,9.40
2022-10-09T21:12:02.542Z,9.36
2022-10-09T21:15:08.233Z,9.46
2022-10-09T21:18:11.203Z,9.58
2022-10-09T21:21:16.239Z,9.66
2022-10-09T21:24:19.122Z,9.64
2022-10-09T21:27:21.923Z,9.74
2022-10-09T21:30:26.468Z,9.85
2022-10-09T21:33:29.327Z,9.93
2022-10-09T21:36:47.166Z,10.12
2022-10-09T21:39:58.788Z,10.14
2022-10-09T21:43:01.645Z,10.13
2022-10-09T21:46:05.908Z,10.35
2022-10-09T21:49:12.351Z,10.36
2022-10-09T21:52:15.247Z,10.55
2022-10-09T21:55:21.751Z,10.58
2022-10-09T21:58:24.551Z,10.53
2022-10-09T22:01:28.835Z,10.66
2022-10-09T22:04:31.654Z,10.60
2022-10-09T22:07:37.359Z,10.63
2022-10-09T22:10:43.301Z,10.63
2022-10-09T22:13:45.922Z,10.57
2022-10-09T22:16:50.135Z,10.62
2022-10-09T22:19:52.904Z,10.64
2022-10-09T22:22:55.770Z,10.65
2022-10-09T22:26:00.209Z,10.66
2022-10-09T22:29:03.012Z,10.55
2022-10-09T22:32:07.196Z,10.57
2022-10-09T22:35:10.693Z,10.58
2022-10-09T22:38:13.272Z,10.50
2022-10-09T22:41:17.942Z,10.60
2022-10-09T22:44:20.577Z,10.54
2022-10-09T22:47:24.675Z,10.57
2022-10-09T22:50:28.211Z,10.60
2022-10-09T22:53:31.285Z,10.48
2022-10-09T22:56:36.730Z,10.58
2022-10-09T22:59:39.292Z,10.47
2022-10-09T23:02:43.358Z,10.46
2022-10-09T23:05:45.925Z,10.44
2022-10-09T23:08:50.081Z,10.49
2022-10-09T23:11:53.032Z,10.43
2022-10-09T23:14:55.813Z,10.41
2022-10-09T23:17:59.718Z,10.38
2022-10-09T23:21:03.897Z,10.47
2022-10-09T23:24:07.255Z,10.45
2022-10-09T23:27:10.003Z,10.40
2022-10-09T23:30:13.432Z,10.36
2022-10-09T23:33:17.512Z,10.51
2022-10-09T23:36:22.246Z,10.49
2022-10-09T23:39:24.911Z,10.46
2022-10-09T23:42:27.619Z,10.51
2022-10-09T23:45:30.372Z,10.50
2022-10-09T23:48:35.659Z,10.44
2022-10-09T23:51:38.944Z,10.39
2022-10-09T23:54:41.691Z,10.41
2022-10-09T23:57:44.280Z,10.34
